sensor_id;sensor_type;location;lat;lon;timestamp;temperature;humidity
19522;DHT22;9905;52.126;5.596;2023-07-09T00:01:47;22.80;99.90
19522;DHT22;9905;52.126;5.596;2023-07-09T00:04:14;22.80;99.90
19522;DHT22;9905;52.126;5.596;2023-07-09T00:06:41;22.80;99.90
19522;DHT22;9905;52.126;5.596;2023-07-09T00:09:13;22.70;99.90
19522;DHT22;9905;52.126;5.596;2023-07-09T00:11:40;22.70;99.90
19522;DHT22;9905;52.126;5.596;2023-07-09T00:14:10;22.70;99.90
19522;DHT22;9905;52.126;5.596;2023-07-09T00:16:38;22.60;99.90
19522;DHT22;9905;52.126;5.596;2023-07-09T00:19:09;22.60;99.90
19522;DHT22;9905;52.126;5.596;2023-07-09T00:21:39;22.50;99.90
19522;DHT22;9905;52.126;5.596;2023-07-09T00:24:06;22.50;99.90
19522;DHT22;9905;52.126;5.596;2023-07-09T00:26:36;22.50;99.90
19522;DHT22;9905;52.126;5.596;2023-07-09T00:29:09;22.50;99.90
19522;DHT22;9905;52.126;5.596;2023-07-09T00:31:36;22.40;99.90
19522;DHT22;9905;52.126;5.596;2023-07-09T00:34:04;22.40;99.90
19522;DHT22;9905;52.126;5.596;2023-07-09T00:36:31;22.40;99.90
19522;DHT22;9905;52.126;5.596;2023-07-09T00:38:58;22.30;99.90
19522;DHT22;9905;52.126;5.596;2023-07-09T00:41:32;22.30;99.90
19522;DHT22;9905;52.126;5.596;2023-07-09T00:44:18;22.30;99.90
19522;DHT22;9905;52.126;5.596;2023-07-09T00:47:17;22.20;99.90
19522;DHT22;9905;52.126;5.596;2023-07-09T00:49:45;22.20;99.90
19522;DHT22;9905;52.126;5.596;2023-07-09T00:52:22;22.20;99.90
19522;DHT22;9905;52.126;5.596;2023-07-09T00:54:51;22.10;99.90
19522;DHT22;9905;52.126;5.596;2023-07-09T00:57:22;22.10;99.90
19522;DHT22;9905;52.126;5.596;2023-07-09T00:59:55;22.10;99.90
19522;DHT22;9905;52.126;5.596;2023-07-09T01:02:23;22.00;99.90
19522;DHT22;9905;52.126;5.596;2023-07-09T01:04:50;22.00;99.90
19522;DHT22;9905;52.126;5.596;2023-07-09T01:07:18;22.00;99.90
19522;DHT22;9905;52.126;5.596;2023-07-09T01:09:47;22.00;99.90
19522;DHT22;9905;52.126;5.596;2023-07-09T01:12:16;22.00;99.90
19522;DHT22;9905;52.126;5.596;2023-07-09T01:14:45;21.90;99.90
19522;DHT22;9905;52.126;5.596;2023-07-09T01:17:19;21.90;99.90
19522;DHT22;9905;52.126;5.596;2023-07-09T01:19:50;21.90;99.90
19522;DHT22;9905;52.126;5.596;2023-07-09T01:22:19;21.80;99.90
19522;DHT22;9905;52.126;5.596;2023-07-09T01:27:34;21.70;99.90
19522;DHT22;9905;52.126;5.596;2023-07-09T01:30:07;21.70;99.90
19522;DHT22;9905;52.126;5.596;2023-07-09T01:32:36;21.70;99.90
19522;DHT22;9905;52.126;5.596;2023-07-09T01:35:05;21.70;99.90
19522;DHT22;9905;52.126;5.596;2023-07-09T01:37:36;21.70;99.90
19522;DHT22;9905;52.126;5.596;2023-07-09T01:40:05;21.60;99.90
19522;DHT22;9905;52.126;5.596;2023-07-09T01:42:35;21.60;99.90
19522;DHT22;9905;52.126;5.596;2023-07-09T01:45:04;21.60;99.90
19522;DHT22;9905;52.126;5.596;2023-07-09T01:47:32;21.50;99.90
19522;DHT22;9905;52.126;5.596;2023-07-09T01:49:59;21.50;99.90
19522;DHT22;9905;52.126;5.596;2023-07-09T01:52:28;21.50;99.90
19522;DHT22;9905;52.126;5.596;2023-07-09T01:54:57;21.50;99.90
19522;DHT22;9905;52.126;5.596;2023-07-09T01:57:25;21.50;99.90
19522;DHT22;9905;52.126;5.596;2023-07-09T02:00:00;21.40;99.90
19522;DHT22;9905;52.126;5.596;2023-07-09T02:02:27;21.40;99.90
19522;DHT22;9905;52.126;5.596;2023-07-09T02:04:55;21.40;99.90
19522;DHT22;9905;52.126;5.596;2023-07-09T02:07:24;21.40;99.90
19522;DHT22;9905;52.126;5.596;2023-07-09T02:09:51;21.40;99.90
19522;DHT22;9905;52.126;5.596;2023-07-09T02:12:20;21.40;99.90
19522;DHT22;9905;52.126;5.596;2023-07-09T02:14:48;21.30;99.90
19522;DHT22;9905;52.126;5.596;2023-07-09T02:17:15;21.30;99.90
19522;DHT22;9905;52.126;5.596;2023-07-09T02:19:43;21.30;99.90
19522;DHT22;9905;52.126;5.596;2023-07-09T02:22:10;21.30;99.90
19522;DHT22;9905;52.126;5.596;2023-07-09T02:24:38;21.30;99.90
19522;DHT22;9905;52.126;5.596;2023-07-09T02:27:06;21.30;99.90
19522;DHT22;9905;52.126;5.596;2023-07-09T02:29:35;21.30;99.90
19522;DHT22;9905;52.126;5.596;2023-07-09T02:32:02;21.30;99.90
19522;DHT22;9905;52.126;5.596;2023-07-09T02:34:30;21.30;99.90
19522;DHT22;9905;52.126;5.596;2023-07-09T02:36:59;21.30;99.90
19522;DHT22;9905;52.126;5.596;2023-07-09T02:39:26;21.30;99.90
19522;DHT22;9905;52.126;5.596;2023-07-09T02:41:53;21.30;99.90
19522;DHT22;9905;52.126;5.596;2023-07-09T02:44:20;21.30;99.90
19522;DHT22;9905;52.126;5.596;2023-07-09T02:46:48;21.20;99.90
19522;DHT22;9905;52.126;5.596;2023-07-09T02:49:15;21.20;99.90
19522;DHT22;9905;52.126;5.596;2023-07-09T02:51:42;21.20;99.90
19522;DHT22;9905;52.126;5.596;2023-07-09T02:54:09;21.20;99.90
19522;DHT22;9905;52.126;5.596;2023-07-09T02:56:36;21.20;99.90
19522;DHT22;9905;52.126;5.596;2023-07-09T02:59:04;21.10;99.90
19522;DHT22;9905;52.126;5.596;2023-07-09T03:01:31;21.10;99.90
19522;DHT22;9905;52.126;5.596;2023-07-09T03:04:01;21.10;99.90
19522;DHT22;9905;52.126;5.596;2023-07-09T03:06:29;21.10;99.90
19522;DHT22;9905;52.126;5.596;2023-07-09T03:08:58;21.00;99.90
19522;DHT22;9905;52.126;5.596;2023-07-09T03:11:27;21.00;99.90
19522;DHT22;9905;52.126;5.596;2023-07-09T03:13:54;21.00;99.90
19522;DHT22;9905;52.126;5.596;2023-07-09T03:16:21;21.00;99.90
19522;DHT22;9905;52.126;5.596;2023-07-09T03:18:48;21.00;99.90
19522;DHT22;9905;52.126;5.596;2023-07-09T03:21:16;20.90;99.90
19522;DHT22;9905;52.126;5.596;2023-07-09T03:23:43;20.90;99.90
19522;DHT22;9905;52.126;5.596;2023-07-09T03:26:10;20.90;99.90
19522;DHT22;9905;52.126;5.596;2023-07-09T03:28:37;20.80;99.90
19522;DHT22;9905;52.126;5.596;2023-07-09T03:31:04;20.90;99.90
19522;DHT22;9905;52.126;5.596;2023-07-09T03:33:31;20.80;99.90
19522;DHT22;9905;52.126;5.596;2023-07-09T03:35:58;20.80;99.90
19522;DHT22;9905;52.126;5.596;2023-07-09T03:38:26;20.80;99.90
19522;DHT22;9905;52.126;5.596;2023-07-09T03:40:54;20.80;99.90
19522;DHT22;9905;52.126;5.596;2023-07-09T03:43:23;20.80;99.90
19522;DHT22;9905;52.126;5.596;2023-07-09T03:45:51;20.80;99.90
19522;DHT22;9905;52.126;5.596;2023-07-09T03:48:19;20.80;99.90
19522;DHT22;9905;52.126;5.596;2023-07-09T03:50:47;20.70;99.90
19522;DHT22;9905;52.126;5.596;2023-07-09T03:53:15;20.80;99.90
19522;DHT22;9905;52.126;5.596;2023-07-09T03:55:46;20.70;99.90
19522;DHT22;9905;52.126;5.596;2023-07-09T03:58:13;20.70;99.90
19522;DHT22;9905;52.126;5.596;2023-07-09T04:00:40;20.70;99.90
19522;DHT22;9905;52.126;5.596;2023-07-09T04:03:07;20.70;99.90
19522;DHT22;9905;52.126;5.596;2023-07-09T04:05:35;20.70;99.90
19522;DHT22;9905;52.126;5.596;2023-07-09T04:08:02;20.70;99.90
19522;DHT22;9905;52.126;5.596;2023-07-09T04:10:30;20.80;99.90
19522;DHT22;9905;52.126;5.596;2023-07-09T04:12:58;20.80;99.90
19522;DHT22;9905;52.126;5.596;2023-07-09T04:15:26;20.80;99.90
19522;DHT22;9905;52.126;5.596;2023-07-09T04:17:52;20.90;99.90
19522;DHT22;9905;52.126;5.596;2023-07-09T04:20:20;20.90;99.90
19522;DHT22;9905;52.126;5.596;2023-07-09T04:22:47;20.90;99.90
19522;DHT22;9905;52.126;5.596;2023-07-09T04:25:14;20.90;99.90
19522;DHT22;9905;52.126;5.596;2023-07-09T04:27:41;21.00;99.90
19522;DHT22;9905;52.126;5.596;2023-07-09T04:30:12;21.00;99.90
19522;DHT22;9905;52.126;5.596;2023-07-09T04:32:40;21.00;99.90
19522;DHT22;9905;52.126;5.596;2023-07-09T04:35:08;21.10;99.90
19522;DHT22;9905;52.126;5.596;2023-07-09T04:37:36;21.10;99.90
19522;DHT22;9905;52.126;5.596;2023-07-09T04:40:04;21.10;99.90
19522;DHT22;9905;52.126;5.596;2023-07-09T04:42:32;21.20;99.90
19522;DHT22;9905;52.126;5.596;2023-07-09T04:44:59;21.20;99.90
19522;DHT22;9905;52.126;5.596;2023-07-09T04:47:27;21.20;99.90
19522;DHT22;9905;52.126;5.596;2023-07-09T04:49:54;21.20;99.90
19522;DHT22;9905;52.126;5.596;2023-07-09T04:52:21;21.20;99.90
19522;DHT22;9905;52.126;5.596;2023-07-09T04:54:50;21.30;99.90
19522;DHT22;9905;52.126;5.596;2023-07-09T04:57:17;21.30;99.90
19522;DHT22;9905;52.126;5.596;2023-07-09T04:59:43;21.30;99.90
19522;DHT22;9905;52.126;5.596;2023-07-09T05:02:13;21.40;99.90
19522;DHT22;9905;52.126;5.596;2023-07-09T05:04:41;21.40;99.90
19522;DHT22;9905;52.126;5.596;2023-07-09T05:07:08;21.40;99.90
19522;DHT22;9905;52.126;5.596;2023-07-09T05:09:35;21.50;99.90
19522;DHT22;9905;52.126;5.596;2023-07-09T05:12:02;21.50;99.90
19522;DHT22;9905;52.126;5.596;2023-07-09T05:14:33;21.60;99.90
19522;DHT22;9905;52.126;5.596;2023-07-09T05:17:00;21.60;99.90
19522;DHT22;9905;52.126;5.596;2023-07-09T05:19:26;21.60;99.90
19522;DHT22;9905;52.126;5.596;2023-07-09T05:21:55;21.60;99.90
19522;DHT22;9905;52.126;5.596;2023-07-09T05:24:21;21.70;99.90
19522;DHT22;9905;52.126;5.596;2023-07-09T05:26:48;21.70;99.90
19522;DHT22;9905;52.126;5.596;2023-07-09T05:29:15;21.80;99.90
19522;DHT22;9905;52.126;5.596;2023-07-09T05:31:42;21.80;99.90
19522;DHT22;9905;52.126;5.596;2023-07-09T05:34:09;21.90;99.90
19522;DHT22;9905;52.126;5.596;2023-07-09T05:36:36;21.90;99.90
19522;DHT22;9905;52.126;5.596;2023-07-09T05:39:04;22.00;99.90
19522;DHT22;9905;52.126;5.596;2023-07-09T05:41:31;22.00;99.90
19522;DHT22;9905;52.126;5.596;2023-07-09T05:43:58;22.10;99.90
19522;DHT22;9905;52.126;5.596;2023-07-09T05:46:25;22.20;99.90
19522;DHT22;9905;52.126;5.596;2023-07-09T05:48:52;22.20;99.90
19522;DHT22;9905;52.126;5.596;2023-07-09T05:51:19;22.30;99.90
19522;DHT22;9905;52.126;5.596;2023-07-09T05:53:47;22.40;99.90
19522;DHT22;9905;52.126;5.596;2023-07-09T05:56:15;22.50;99.90
19522;DHT22;9905;52.126;5.596;2023-07-09T05:58:42;22.60;99.90
19522;DHT22;9905;52.126;5.596;2023-07-09T06:01:09;22.70;99.90
19522;DHT22;9905;52.126;5.596;2023-07-09T06:03:36;22.80;99.90
19522;DHT22;9905;52.126;5.596;2023-07-09T06:06:03;22.80;99.90
19522;DHT22;9905;52.126;5.596;2023-07-09T06:08:32;23.00;99.90
19522;DHT22;9905;52.126;5.596;2023-07-09T06:11:00;23.10;99.90
19522;DHT22;9905;52.126;5.596;2023-07-09T06:13:30;23.20;99.90
19522;DHT22;9905;52.126;5.596;2023-07-09T06:15:58;23.30;99.90
19522;DHT22;9905;52.126;5.596;2023-07-09T06:18:26;23.40;99.90
19522;DHT22;9905;52.126;5.596;2023-07-09T06:20:58;23.50;99.90
19522;DHT22;9905;52.126;5.596;2023-07-09T06:23:25;23.70;99.90
19522;DHT22;9905;52.126;5.596;2023-07-09T06:25:52;23.80;99.90
19522;DHT22;9905;52.126;5.596;2023-07-09T06:28:21;23.90;99.90
19522;DHT22;9905;52.126;5.596;2023-07-09T06:30:50;24.00;99.90
19522;DHT22;9905;52.126;5.596;2023-07-09T06:33:18;24.10;99.90
19522;DHT22;9905;52.126;5.596;2023-07-09T06:35:49;24.30;99.90
19522;DHT22;9905;52.126;5.596;2023-07-09T06:38:17;24.40;99.90
19522;DHT22;9905;52.126;5.596;2023-07-09T06:40:44;24.50;99.90
19522;DHT22;9905;52.126;5.596;2023-07-09T06:43:11;24.60;99.90
19522;DHT22;9905;52.126;5.596;2023-07-09T06:45:38;24.70;99.90
19522;DHT22;9905;52.126;5.596;2023-07-09T06:48:07;24.90;99.90
19522;DHT22;9905;52.126;5.596;2023-07-09T06:50:34;25.00;99.90
19522;DHT22;9905;52.126;5.596;2023-07-09T06:53:01;25.10;99.90
19522;DHT22;9905;52.126;5.596;2023-07-09T06:55:28;25.10;99.90
19522;DHT22;9905;52.126;5.596;2023-07-09T06:57:55;25.20;99.90
19522;DHT22;9905;52.126;5.596;2023-07-09T07:00:22;25.40;99.90
19522;DHT22;9905;52.126;5.596;2023-07-09T07:02:49;25.50;99.90
19522;DHT22;9905;52.126;5.596;2023-07-09T07:05:19;25.60;99.90
19522;DHT22;9905;52.126;5.596;2023-07-09T07:07:48;25.70;99.90
19522;DHT22;9905;52.126;5.596;2023-07-09T07:10:15;25.80;99.90
19522;DHT22;9905;52.126;5.596;2023-07-09T07:12:43;25.90;99.90
19522;DHT22;9905;52.126;5.596;2023-07-09T07:15:12;26.00;99.90
19522;DHT22;9905;52.126;5.596;2023-07-09T07:17:39;26.20;99.90
19522;DHT22;9905;52.126;5.596;2023-07-09T07:20:08;26.30;99.90
19522;DHT22;9905;52.126;5.596;2023-07-09T07:22:37;26.40;99.90
19522;DHT22;9905;52.126;5.596;2023-07-09T07:25:04;26.50;99.90
19522;DHT22;9905;52.126;5.596;2023-07-09T07:27:31;26.60;99.90
19522;DHT22;9905;52.126;5.596;2023-07-09T07:29:59;26.70;99.90
19522;DHT22;9905;52.126;5.596;2023-07-09T07:32:26;26.80;99.90
19522;DHT22;9905;52.126;5.596;2023-07-09T07:34:53;27.00;99.90
19522;DHT22;9905;52.126;5.596;2023-07-09T07:37:21;27.10;99.90
19522;DHT22;9905;52.126;5.596;2023-07-09T07:39:49;27.30;99.90
19522;DHT22;9905;52.126;5.596;2023-07-09T07:42:16;27.40;99.90
19522;DHT22;9905;52.126;5.596;2023-07-09T07:44:43;27.50;99.90
19522;DHT22;9905;52.126;5.596;2023-07-09T07:47:10;27.60;99.90
19522;DHT22;9905;52.126;5.596;2023-07-09T07:49:37;27.70;99.90
19522;DHT22;9905;52.126;5.596;2023-07-09T07:52:05;27.80;99.90
19522;DHT22;9905;52.126;5.596;2023-07-09T07:54:32;28.00;99.90
19522;DHT22;9905;52.126;5.596;2023-07-09T07:57:00;28.00;99.90
19522;DHT22;9905;52.126;5.596;2023-07-09T07:59:28;28.20;99.90
19522;DHT22;9905;52.126;5.596;2023-07-09T08:01:54;28.30;99.90
19522;DHT22;9905;52.126;5.596;2023-07-09T08:04:21;28.40;99.90
19522;DHT22;9905;52.126;5.596;2023-07-09T08:06:48;28.60;99.90
19522;DHT22;9905;52.126;5.596;2023-07-09T08:09:15;28.70;99.90
19522;DHT22;9905;52.126;5.596;2023-07-09T08:11:42;28.80;99.90
19522;DHT22;9905;52.126;5.596;2023-07-09T08:14:10;28.90;99.90
19522;DHT22;9905;52.126;5.596;2023-07-09T08:16:37;29.10;99.90
19522;DHT22;9905;52.126;5.596;2023-07-09T08:19:04;29.20;99.90
19522;DHT22;9905;52.126;5.596;2023-07-09T08:21:32;29.30;99.90
19522;DHT22;9905;52.126;5.596;2023-07-09T08:23:59;29.40;99.90
19522;DHT22;9905;52.126;5.596;2023-07-09T08:26:26;29.50;99.90
19522;DHT22;9905;52.126;5.596;2023-07-09T08:28:54;29.60;99.90
19522;DHT22;9905;52.126;5.596;2023-07-09T08:31:22;29.70;99.90
19522;DHT22;9905;52.126;5.596;2023-07-09T08:33:49;29.80;99.90
19522;DHT22;9905;52.126;5.596;2023-07-09T08:36:16;29.90;99.90
19522;DHT22;9905;52.126;5.596;2023-07-09T08:38:42;30.10;99.90
19522;DHT22;9905;52.126;5.596;2023-07-09T08:41:26;30.20;99.90
19522;DHT22;9905;52.126;5.596;2023-07-09T08:44:07;30.40;99.90
19522;DHT22;9905;52.126;5.596;2023-07-09T08:46:49;30.50;99.90
19522;DHT22;9905;52.126;5.596;2023-07-09T08:49:31;30.70;99.90
19522;DHT22;9905;52.126;5.596;2023-07-09T08:52:01;30.80;99.90
19522;DHT22;9905;52.126;5.596;2023-07-09T08:54:33;30.90;99.90
19522;DHT22;9905;52.126;5.596;2023-07-09T08:57:14;31.00;99.90
19522;DHT22;9905;52.126;5.596;2023-07-09T08:59:41;31.10;99.90
19522;DHT22;9905;52.126;5.596;2023-07-09T09:02:24;31.10;99.90
19522;DHT22;9905;52.126;5.596;2023-07-09T09:04:52;31.30;99.90
19522;DHT22;9905;52.126;5.596;2023-07-09T09:07:27;31.40;99.90
19522;DHT22;9905;52.126;5.596;2023-07-09T09:09:57;31.50;99.90
19522;DHT22;9905;52.126;5.596;2023-07-09T09:12:28;31.60;99.90
19522;DHT22;9905;52.126;5.596;2023-07-09T09:15:03;31.70;99.90
19522;DHT22;9905;52.126;5.596;2023-07-09T09:17:34;31.80;99.90
19522;DHT22;9905;52.126;5.596;2023-07-09T09:20:06;31.90;99.90
19522;DHT22;9905;52.126;5.596;2023-07-09T09:22:42;32.10;99.90
19522;DHT22;9905;52.126;5.596;2023-07-09T09:25:18;31.90;99.90
19522;DHT22;9905;52.126;5.596;2023-07-09T09:27:46;31.90;99.90
19522;DHT22;9905;52.126;5.596;2023-07-09T09:30:15;32.10;99.90
19522;DHT22;9905;52.126;5.596;2023-07-09T09:32:47;32.20;99.90
19522;DHT22;9905;52.126;5.596;2023-07-09T09:35:16;32.30;99.90
19522;DHT22;9905;52.126;5.596;2023-07-09T09:37:50;32.40;99.90
19522;DHT22;9905;52.126;5.596;2023-07-09T09:40:18;32.50;99.90
19522;DHT22;9905;52.126;5.596;2023-07-09T09:42:47;32.70;99.90
19522;DHT22;9905;52.126;5.596;2023-07-09T09:45:16;32.70;99.90
19522;DHT22;9905;52.126;5.596;2023-07-09T09:47:45;32.90;99.90
19522;DHT22;9905;52.126;5.596;2023-07-09T09:50:14;33.00;99.90
19522;DHT22;9905;52.126;5.596;2023-07-09T09:52:48;33.00;99.90
19522;DHT22;9905;52.126;5.596;2023-07-09T09:55:18;33.10;99.90
19522;DHT22;9905;52.126;5.596;2023-07-09T09:57:49;33.30;99.90
19522;DHT22;9905;52.126;5.596;2023-07-09T10:00:17;33.40;99.90
19522;DHT22;9905;52.126;5.596;2023-07-09T10:02:46;33.50;99.90
19522;DHT22;9905;52.126;5.596;2023-07-09T10:05:14;33.60;99.90
19522;DHT22;9905;52.126;5.596;2023-07-09T10:07:45;33.70;99.90
19522;DHT22;9905;52.126;5.596;2023-07-09T10:10:15;33.80;99.90
19522;DHT22;9905;52.126;5.596;2023-07-09T10:12:51;33.90;99.90
19522;DHT22;9905;52.126;5.596;2023-07-09T10:15:30;34.00;99.90
19522;DHT22;9905;52.126;5.596;2023-07-09T10:18:02;34.00;99.90
19522;DHT22;9905;52.126;5.596;2023-07-09T10:20:35;34.00;99.90
19522;DHT22;9905;52.126;5.596;2023-07-09T10:23:13;34.10;99.90
19522;DHT22;9905;52.126;5.596;2023-07-09T10:25:49;34.30;99.90
19522;DHT22;9905;52.126;5.596;2023-07-09T10:28:41;34.40;99.90
19522;DHT22;9905;52.126;5.596;2023-07-09T10:31:15;34.40;99.90
19522;DHT22;9905;52.126;5.596;2023-07-09T10:33:55;34.50;99.90
19522;DHT22;9905;52.126;5.596;2023-07-09T10:36:34;34.60;99.90
19522;DHT22;9905;52.126;5.596;2023-07-09T10:39:14;34.60;99.90
19522;DHT22;9905;52.126;5.596;2023-07-09T10:41:43;34.60;99.90
19522;DHT22;9905;52.126;5.596;2023-07-09T10:44:15;34.60;99.90
19522;DHT22;9905;52.126;5.596;2023-07-09T10:46:48;34.70;99.90
19522;DHT22;9905;52.126;5.596;2023-07-09T10:49:19;34.90;99.90
19522;DHT22;9905;52.126;5.596;2023-07-09T10:51:51;35.00;99.90
19522;DHT22;9905;52.126;5.596;2023-07-09T10:54:24;35.20;99.90
19522;DHT22;9905;52.126;5.596;2023-07-09T10:57:00;35.40;99.90
19522;DHT22;9905;52.126;5.596;2023-07-09T10:59:31;35.60;99.90
19522;DHT22;9905;52.126;5.596;2023-07-09T11:02:13;35.80;99.90
19522;DHT22;9905;52.126;5.596;2023-07-09T11:04:47;35.80;99.90
19522;DHT22;9905;52.126;5.596;2023-07-09T11:07:20;35.90;99.90
19522;DHT22;9905;52.126;5.596;2023-07-09T11:09:51;36.00;99.90
19522;DHT22;9905;52.126;5.596;2023-07-09T11:12:27;36.00;99.90
19522;DHT22;9905;52.126;5.596;2023-07-09T11:14:58;36.10;99.90
19522;DHT22;9905;52.126;5.596;2023-07-09T11:17:29;36.10;99.90
19522;DHT22;9905;52.126;5.596;2023-07-09T11:19:59;36.10;99.90
19522;DHT22;9905;52.126;5.596;2023-07-09T11:22:35;35.90;99.90
19522;DHT22;9905;52.126;5.596;2023-07-09T11:25:09;36.10;99.90
19522;DHT22;9905;52.126;5.596;2023-07-09T11:27:48;36.10;99.90
19522;DHT22;9905;52.126;5.596;2023-07-09T11:30:19;36.00;99.90
19522;DHT22;9905;52.126;5.596;2023-07-09T11:33:00;36.00;99.90
19522;DHT22;9905;52.126;5.596;2023-07-09T11:35:46;35.90;99.90
19522;DHT22;9905;52.126;5.596;2023-07-09T11:38:17;36.00;99.90
19522;DHT22;9905;52.126;5.596;2023-07-09T11:40:50;36.10;99.90
19522;DHT22;9905;52.126;5.596;2023-07-09T11:43:29;36.20;99.90
19522;DHT22;9905;52.126;5.596;2023-07-09T11:45:58;36.10;99.90
19522;DHT22;9905;52.126;5.596;2023-07-09T11:48:30;36.10;99.90
19522;DHT22;9905;52.126;5.596;2023-07-09T11:51:05;36.20;99.90
19522;DHT22;9905;52.126;5.596;2023-07-09T11:53:38;36.20;99.90
19522;DHT22;9905;52.126;5.596;2023-07-09T11:56:08;36.30;99.90
19522;DHT22;9905;52.126;5.596;2023-07-09T11:58:36;36.30;99.90
19522;DHT22;9905;52.126;5.596;2023-07-09T12:01:09;36.00;99.90
19522;DHT22;9905;52.126;5.596;2023-07-09T12:03:43;35.80;99.90
19522;DHT22;9905;52.126;5.596;2023-07-09T12:06:17;35.80;99.90
19522;DHT22;9905;52.126;5.596;2023-07-09T12:08:46;35.60;99.90
19522;DHT22;9905;52.126;5.596;2023-07-09T12:11:21;35.50;99.90
19522;DHT22;9905;52.126;5.596;2023-07-09T12:13:49;35.40;99.90
19522;DHT22;9905;52.126;5.596;2023-07-09T12:16:23;35.30;99.90
19522;DHT22;9905;52.126;5.596;2023-07-09T12:18:50;35.40;99.90
19522;DHT22;9905;52.126;5.596;2023-07-09T12:21:19;35.10;99.90
19522;DHT22;9905;52.126;5.596;2023-07-09T12:23:46;35.20;99.90
19522;DHT22;9905;52.126;5.596;2023-07-09T12:26:16;35.30;99.90
19522;DHT22;9905;52.126;5.596;2023-07-09T12:28:49;35.50;99.90
19522;DHT22;9905;52.126;5.596;2023-07-09T12:31:17;35.50;99.90
19522;DHT22;9905;52.126;5.596;2023-07-09T12:33:48;35.30;99.90
19522;DHT22;9905;52.126;5.596;2023-07-09T12:36:16;34.90;99.90
19522;DHT22;9905;52.126;5.596;2023-07-09T12:38:48;34.70;99.90
19522;DHT22;9905;52.126;5.596;2023-07-09T12:41:20;34.60;99.90
19522;DHT22;9905;52.126;5.596;2023-07-09T12:43:49;34.30;99.90
19522;DHT22;9905;52.126;5.596;2023-07-09T12:46:17;34.20;99.90
19522;DHT22;9905;52.126;5.596;2023-07-09T12:48:45;34.10;99.90
19522;DHT22;9905;52.126;5.596;2023-07-09T12:51:16;34.10;99.90
19522;DHT22;9905;52.126;5.596;2023-07-09T12:53:46;34.10;99.90
19522;DHT22;9905;52.126;5.596;2023-07-09T12:56:16;34.10;99.90
19522;DHT22;9905;52.126;5.596;2023-07-09T12:58:43;34.10;99.90
19522;DHT22;9905;52.126;5.596;2023-07-09T13:01:15;33.80;99.90
19522;DHT22;9905;52.126;5.596;2023-07-09T13:03:51;33.90;99.90
19522;DHT22;9905;52.126;5.596;2023-07-09T13:06:27;33.60;99.90
19522;DHT22;9905;52.126;5.596;2023-07-09T13:08:58;33.70;99.90
19522;DHT22;9905;52.126;5.596;2023-07-09T13:11:25;34.00;99.90
19522;DHT22;9905;52.126;5.596;2023-07-09T13:13:56;33.80;99.90
19522;DHT22;9905;52.126;5.596;2023-07-09T13:16:25;33.50;99.90
19522;DHT22;9905;52.126;5.596;2023-07-09T13:18:52;33.20;99.90
19522;DHT22;9905;52.126;5.596;2023-07-09T13:21:21;33.10;99.90
19522;DHT22;9905;52.126;5.596;2023-07-09T13:23:48;32.70;99.90
19522;DHT22;9905;52.126;5.596;2023-07-09T13:26:17;32.40;99.90
19522;DHT22;9905;52.126;5.596;2023-07-09T13:28:44;32.00;99.90
19522;DHT22;9905;52.126;5.596;2023-07-09T13:31:14;31.80;99.90
19522;DHT22;9905;52.126;5.596;2023-07-09T13:33:42;31.90;99.90
19522;DHT22;9905;52.126;5.596;2023-07-09T13:36:10;31.60;99.90
19522;DHT22;9905;52.126;5.596;2023-07-09T13:38:37;31.50;99.90
19522;DHT22;9905;52.126;5.596;2023-07-09T13:41:12;31.30;99.90
19522;DHT22;9905;52.126;5.596;2023-07-09T13:43:43;31.50;99.90
19522;DHT22;9905;52.126;5.596;2023-07-09T13:46:10;31.40;99.90
19522;DHT22;9905;52.126;5.596;2023-07-09T13:48:39;31.00;99.90
19522;DHT22;9905;52.126;5.596;2023-07-09T13:51:14;30.80;99.90
19522;DHT22;9905;52.126;5.596;2023-07-09T13:53:41;30.50;99.90
19522;DHT22;9905;52.126;5.596;2023-07-09T13:56:08;30.40;99.90
19522;DHT22;9905;52.126;5.596;2023-07-09T13:58:35;30.40;99.90
19522;DHT22;9905;52.126;5.596;2023-07-09T14:01:10;30.20;99.90
19522;DHT22;9905;52.126;5.596;2023-07-09T14:03:38;30.00;99.90
19522;DHT22;9905;52.126;5.596;2023-07-09T14:06:05;29.90;99.90
19522;DHT22;9905;52.126;5.596;2023-07-09T14:08:32;29.60;99.90
19522;DHT22;9905;52.126;5.596;2023-07-09T14:10:59;29.60;99.90
19522;DHT22;9905;52.126;5.596;2023-07-09T14:13:26;29.40;99.90
19522;DHT22;9905;52.126;5.596;2023-07-09T14:15:56;29.30;99.90
19522;DHT22;9905;52.126;5.596;2023-07-09T14:18:25;29.20;99.90
19522;DHT22;9905;52.126;5.596;2023-07-09T14:20:52;29.00;99.90
19522;DHT22;9905;52.126;5.596;2023-07-09T14:23:19;28.70;99.90
19522;DHT22;9905;52.126;5.596;2023-07-09T14:25:47;28.70;99.90
19522;DHT22;9905;52.126;5.596;2023-07-09T14:28:16;28.60;99.90
19522;DHT22;9905;52.126;5.596;2023-07-09T14:30:44;28.40;99.90
19522;DHT22;9905;52.126;5.596;2023-07-09T14:33:13;28.00;99.90
19522;DHT22;9905;52.126;5.596;2023-07-09T14:35:42;27.80;99.90
19522;DHT22;9905;52.126;5.596;2023-07-09T14:38:16;27.50;99.90
19522;DHT22;9905;52.126;5.596;2023-07-09T14:40:43;27.50;99.90
19522;DHT22;9905;52.126;5.596;2023-07-09T14:43:11;27.50;99.90
19522;DHT22;9905;52.126;5.596;2023-07-09T14:45:38;27.30;99.90
19522;DHT22;9905;52.126;5.596;2023-07-09T14:48:09;27.00;99.90
19522;DHT22;9905;52.126;5.596;2023-07-09T14:50:37;27.00;99.90
19522;DHT22;9905;52.126;5.596;2023-07-09T14:53:08;27.00;99.90
19522;DHT22;9905;52.126;5.596;2023-07-09T14:55:37;26.90;99.90
19522;DHT22;9905;52.126;5.596;2023-07-09T14:58:11;26.60;99.90
19522;DHT22;9905;52.126;5.596;2023-07-09T15:00:40;26.30;99.90
19522;DHT22;9905;52.126;5.596;2023-07-09T15:03:10;25.90;99.90
19522;DHT22;9905;52.126;5.596;2023-07-09T15:05:37;25.70;99.90
19522;DHT22;9905;52.126;5.596;2023-07-09T15:08:12;25.20;99.90
19522;DHT22;9905;52.126;5.596;2023-07-09T15:10:39;24.70;99.90
19522;DHT22;9905;52.126;5.596;2023-07-09T15:13:14;24.40;99.90
19522;DHT22;9905;52.126;5.596;2023-07-09T15:15:43;24.00;99.90
19522;DHT22;9905;52.126;5.596;2023-07-09T15:18:11;23.80;99.90
19522;DHT22;9905;52.126;5.596;2023-07-09T15:20:39;23.80;99.90
19522;DHT22;9905;52.126;5.596;2023-07-09T15:23:07;23.90;99.90
19522;DHT22;9905;52.126;5.596;2023-07-09T15:25:36;24.10;99.90
19522;DHT22;9905;52.126;5.596;2023-07-09T15:28:03;24.30;99.90
19522;DHT22;9905;52.126;5.596;2023-07-09T15:30:30;24.10;99.90
19522;DHT22;9905;52.126;5.596;2023-07-09T15:32:59;24.10;99.90
19522;DHT22;9905;52.126;5.596;2023-07-09T15:35:31;24.20;99.90
19522;DHT22;9905;52.126;5.596;2023-07-09T15:37:59;24.30;99.90
19522;DHT22;9905;52.126;5.596;2023-07-09T15:40:27;24.50;99.90
19522;DHT22;9905;52.126;5.596;2023-07-09T15:42:58;24.60;99.90
19522;DHT22;9905;52.126;5.596;2023-07-09T15:45:27;24.70;99.90
19522;DHT22;9905;52.126;5.596;2023-07-09T15:47:54;24.70;99.90
19522;DHT22;9905;52.126;5.596;2023-07-09T15:50:23;24.60;99.90
19522;DHT22;9905;52.126;5.596;2023-07-09T15:52:52;24.30;99.90
19522;DHT22;9905;52.126;5.596;2023-07-09T15:55:21;24.10;99.90
19522;DHT22;9905;52.126;5.596;2023-07-09T15:57:50;24.00;99.90
19522;DHT22;9905;52.126;5.596;2023-07-09T16:00:22;23.90;99.90
19522;DHT22;9905;52.126;5.596;2023-07-09T16:02:50;23.80;99.90